createdAt,value
2023-04-16T00:01:08.415Z,84.87
2023-04-16T00:03:34.921Z,85.49
2023-04-16T00:06:01.563Z,85.09
2023-04-16T00:08:27.974Z,85.14
2023-04-16T00:10:54.253Z,85.45
2023-04-16T00:13:21.083Z,85.28
2023-04-16T00:15:47.353Z,85.47
2023-04-16T00:18:13.614Z,85.82
2023-04-16T00:20:39.914Z,85.63
2023-04-16T00:23:06.253Z,85.57
2023-04-16T00:25:32.539Z,85.91
2023-04-16T00:27:58.814Z,85.43
2023-04-16T00:30:25.139Z,85.43
2023-04-16T00:32:51.468Z,85.47
2023-04-16T00:35:17.958Z,85.57
2023-04-16T00:37:44.372Z,85.71
2023-04-16T00:40:11.100Z,85.46
2023-04-16T00:42:37.426Z,85.97
2023-04-16T00:45:05.411Z,85.18
2023-04-16T00:47:31.838Z,85.61
2023-04-16T00:49:58.239Z,85.61
2023-04-16T00:52:25.752Z,85.13
2023-04-16T00:54:53.658Z,85.46
2023-04-16T00:57:19.964Z,85.29
2023-04-16T00:59:46.421Z,85.01
2023-04-16T01:02:12.823Z,84.96
2023-04-16T01:04:39.386Z,85.53
2023-04-16T01:07:05.675Z,85.64
2023-04-16T01:09:32.037Z,85.34
2023-04-16T01:11:58.326Z,85.64
2023-04-16T01:14:24.718Z,85.49
2023-04-16T01:16:50.996Z,86.02
2023-04-16T01:19:17.410Z,85.49
2023-04-16T01:21:43.674Z,85.60
2023-04-16T01:24:09.954Z,85.28
2023-04-16T01:26:36.307Z,85.36
2023-04-16T01:29:02.763Z,85.89
2023-04-16T01:31:29.102Z,85.49
2023-04-16T01:33:55.509Z,85.44
2023-04-16T01:36:21.854Z,85.05
2023-04-16T01:38:48.281Z,85.40
2023-04-16T01:41:14.596Z,85.25
2023-04-16T01:43:40.937Z,84.86
2023-04-16T01:46:14.995Z,84.94
2023-04-16T01:48:41.584Z,84.63
2023-04-16T01:51:07.869Z,84.73
2023-04-16T01:53:36.535Z,84.61
2023-04-16T01:56:03.641Z,84.72
2023-04-16T01:58:31.247Z,84.44
2023-04-16T02:00:57.800Z,84.70
2023-04-16T02:03:24.542Z,84.53
2023-04-16T02:05:51.829Z,84.25
2023-04-16T02:08:18.194Z,84.18
2023-04-16T02:10:49.789Z,84.56
2023-04-16T02:13:16.750Z,84.20
2023-04-16T02:15:50.581Z,84.28
2023-04-16T02:18:17.001Z,84.09
2023-04-16T02:20:45.050Z,84.15
2023-04-16T02:23:12.387Z,84.07
2023-04-16T02:25:39.870Z,84.20
2023-04-16T02:28:06.528Z,84.07
2023-04-16T02:30:32.876Z,83.77
2023-04-16T02:32:59.220Z,83.42
2023-04-16T02:35:25.749Z,83.92
2023-04-16T02:37:52.136Z,83.42
2023-04-16T02:40:19.288Z,83.55
2023-04-16T02:42:45.578Z,83.80
2023-04-16T02:45:12.151Z,83.50
2023-04-16T02:47:38.470Z,83.74
2023-04-16T02:50:05.207Z,83.84
2023-04-16T02:52:31.517Z,84.23
2023-04-16T02:54:57.793Z,83.83
2023-04-16T02:57:24.197Z,83.79
2023-04-16T02:59:50.522Z,84.21
2023-04-16T03:02:17.044Z,83.60
2023-04-16T03:04:43.645Z,83.52
2023-04-16T03:07:10.267Z,83.16
2023-04-16T03:09:36.551Z,84.11
2023-04-16T03:12:02.929Z,83.23
2023-04-16T03:14:29.490Z,83.50
2023-04-16T03:16:55.850Z,83.76
2023-04-16T03:19:22.249Z,84.00
2023-04-16T03:21:48.701Z,84.15
2023-04-16T03:24:15.071Z,83.70
2023-04-16T03:26:41.488Z,83.75
2023-04-16T03:29:08.094Z,83.30
2023-04-16T03:31:34.635Z,83.58
2023-04-16T03:34:01.158Z,83.64
2023-04-16T03:36:27.723Z,83.27
2023-04-16T03:38:54.040Z,83.59
2023-04-16T03:41:20.414Z,83.57
2023-04-16T03:43:46.701Z,82.86
2023-04-16T03:46:13.038Z,82.91
2023-04-16T03:48:39.455Z,83.63
2023-04-16T03:51:05.783Z,83.25
2023-04-16T03:53:32.048Z,82.73
2023-04-16T03:55:58.476Z,83.18
2023-04-16T03:58:24.816Z,83.13
2023-04-16T04:00:53.233Z,82.54
2023-04-16T04:03:19.784Z,82.71
2023-04-16T04:05:46.280Z,83.25
2023-04-16T04:08:12.659Z,83.42
2023-04-16T04:10:39.026Z,83.06
2023-04-16T04:13:06.539Z,83.07
2023-04-16T04:15:32.787Z,83.20
2023-04-16T04:17:59.576Z,83.54
2023-04-16T04:20:26.074Z,83.31
2023-04-16T04:22:52.375Z,83.83
2023-04-16T04:25:18.656Z,83.22
2023-04-16T04:27:44.929Z,82.93
2023-04-16T04:30:11.855Z,83.23
2023-04-16T04:32:38.184Z,82.40
2023-04-16T04:35:04.723Z,82.54
2023-04-16T04:37:30.974Z,82.46
2023-04-16T04:39:57.340Z,82.95
2023-04-16T04:42:24.225Z,82.66
2023-04-16T04:44:50.632Z,83.27
2023-04-16T04:47:16.921Z,82.89
2023-04-16T04:49:43.196Z,82.81
2023-04-16T04:52:09.628Z,82.64
2023-04-16T04:54:35.908Z,82.51
2023-04-16T04:57:02.234Z,83.13
2023-04-16T04:59:28.502Z,82.44
2023-04-16T05:01:54.879Z,82.32
2023-04-16T05:04:21.272Z,82.59
2023-04-16T05:06:47.544Z,81.85
2023-04-16T05:09:13.903Z,82.60
2023-04-16T05:11:42.097Z,82.34
2023-04-16T05:14:08.641Z,81.97
2023-04-16T05:16:36.967Z,81.59
2023-04-16T05:19:03.935Z,81.85
2023-04-16T05:21:30.216Z,81.90
2023-04-16T05:23:56.675Z,81.40
2023-04-16T05:26:22.941Z,80.88
2023-04-16T05:28:49.243Z,81.24
2023-04-16T05:31:15.590Z,81.06
2023-04-16T05:33:42.027Z,80.52
2023-04-16T05:36:08.299Z,80.39
2023-04-16T05:38:34.590Z,81.06
2023-04-16T05:41:00.912Z,80.87
2023-04-16T05:43:27.369Z,80.36
2023-04-16T05:45:53.658Z,80.65
2023-04-16T05:48:20.033Z,80.11
2023-04-16T05:50:46.305Z,80.44
2023-04-16T05:53:12.739Z,80.78
2023-04-16T05:55:39.101Z,80.50
2023-04-16T05:58:05.466Z,80.20
2023-04-16T06:00:35.308Z,80.48
2023-04-16T06:03:02.573Z,80.89
2023-04-16T06:05:30.153Z,79.99
2023-04-16T06:07:56.725Z,80.32
2023-04-16T06:10:23.113Z,80.23
2023-04-16T06:12:49.458Z,79.15
2023-04-16T06:15:15.898Z,79.25
2023-04-16T06:17:42.239Z,78.86
2023-04-16T06:20:09.053Z,79.43
2023-04-16T06:22:35.462Z,78.28
2023-04-16T06:25:01.805Z,78.78
2023-04-16T06:27:28.161Z,78.43
2023-04-16T06:29:54.453Z,78.10
2023-04-16T06:32:20.851Z,77.93
2023-04-16T06:34:47.271Z,77.75
2023-04-16T06:37:13.570Z,78.18
2023-04-16T06:39:39.980Z,78.28
2023-04-16T06:42:06.281Z,78.39
2023-04-16T06:44:32.723Z,78.15
2023-04-16T06:46:59.055Z,78.39
2023-04-16T06:49:25.400Z,78.53
2023-04-16T06:51:51.751Z,78.53
2023-04-16T06:54:18.018Z,78.54
2023-04-16T06:56:44.352Z,77.95
2023-04-16T06:59:10.814Z,77.55
2023-04-16T07:01:37.244Z,78.06
2023-04-16T07:04:03.694Z,76.91
2023-04-16T07:06:30.145Z,77.58
2023-04-16T07:08:56.414Z,77.56
2023-04-16T07:11:22.740Z,77.01
2023-04-16T07:13:49.044Z,77.29
2023-04-16T07:16:15.409Z,76.84
2023-04-16T07:18:41.664Z,77.28
2023-04-16T07:21:07.929Z,77.85
2023-04-16T07:23:34.381Z,77.23
2023-04-16T07:26:00.720Z,77.48
2023-04-16T07:28:27.013Z,77.00
2023-04-16T07:30:53.304Z,76.48
2023-04-16T07:33:19.671Z,76.87
2023-04-16T07:35:46.070Z,77.63
2023-04-16T07:38:12.489Z,77.16
2023-04-16T07:40:38.899Z,76.86
2023-04-16T07:43:05.195Z,76.72
2023-04-16T07:45:31.468Z,76.90
2023-04-16T07:47:57.888Z,76.17
2023-04-16T07:50:25.205Z,77.22
2023-04-16T07:52:51.520Z,76.15
2023-04-16T07:55:17.824Z,76.41
2023-04-16T07:57:44.145Z,76.90
2023-04-16T08:00:10.958Z,76.62
2023-04-16T08:02:37.574Z,76.48
2023-04-16T08:05:04.424Z,77.15
2023-04-16T08:07:31.924Z,76.75
2023-04-16T08:09:59.624Z,76.07
2023-04-16T08:12:25.922Z,74.43
2023-04-16T08:14:52.456Z,75.42
2023-04-16T08:17:18.875Z,74.43
2023-04-16T08:19:45.292Z,73.91
2023-04-16T08:22:14.575Z,72.51
2023-04-16T08:24:41.087Z,72.67
2023-04-16T08:27:17.892Z,72.56
2023-04-16T08:29:45.885Z,69.05
2023-04-16T08:32:12.720Z,70.55
2023-04-16T08:34:39.093Z,69.72
2023-04-16T08:37:05.489Z,70.55
2023-04-16T08:39:31.789Z,70.09
2023-04-16T08:41:58.317Z,69.11
2023-04-16T08:44:31.318Z,68.43
2023-04-16T08:46:58.320Z,67.32
2023-04-16T08:49:26.516Z,67.39
2023-04-16T08:51:56.988Z,64.77
2023-04-16T08:54:43.256Z,61.67
2023-04-16T08:57:10.872Z,65.37
2023-04-16T08:59:38.653Z,64.58
2023-04-16T09:02:06.155Z,64.85
2023-04-16T09:04:33.891Z,65.05
2023-04-16T09:07:04.445Z,63.67
2023-04-16T09:09:33.416Z,63.48
2023-04-16T09:12:01.273Z,65.06
2023-04-16T09:14:27.585Z,65.82
2023-04-16T09:16:54.183Z,65.69
2023-04-16T09:19:20.464Z,65.48
2023-04-16T09:21:47.672Z,64.84
2023-04-16T09:24:14.269Z,64.63
2023-04-16T09:26:41.973Z,64.96
2023-04-16T09:29:09.644Z,64.63
2023-04-16T09:31:36.297Z,64.64
2023-04-16T09:34:07.638Z,65.50
2023-04-16T09:36:34.845Z,66.32
2023-04-16T09:39:02.335Z,66.20
2023-04-16T09:41:31.088Z,65.73
2023-04-16T09:43:59.655Z,65.94
2023-04-16T09:46:35.022Z,65.83
2023-04-16T09:49:15.121Z,64.91
2023-04-16T09:51:42.382Z,64.92
2023-04-16T09:54:08.890Z,65.22
2023-04-16T09:56:42.393Z,66.02
2023-04-16T09:59:16.929Z,65.76
2023-04-16T10:01:43.293Z,65.81
2023-04-16T10:04:09.820Z,65.85
2023-04-16T10:06:36.199Z,65.71
2023-04-16T10:09:07.170Z,65.86
2023-04-16T10:11:34.024Z,67.24
2023-04-16T10:14:00.742Z,67.60
2023-04-16T10:16:27.811Z,68.19
2023-04-16T10:18:54.244Z,68.15
2023-04-16T10:21:21.380Z,68.87
2023-04-16T10:23:47.926Z,68.24
2023-04-16T10:26:14.944Z,68.60
2023-04-16T10:28:41.648Z,69.61
2023-04-16T10:31:09.175Z,69.26
2023-04-16T10:33:39.241Z,69.83
2023-04-16T10:36:13.335Z,69.21
2023-04-16T10:38:41.738Z,70.39
2023-04-16T10:41:08.543Z,70.81
2023-04-16T10:43:44.949Z,72.31
2023-04-16T10:46:20.320Z,72.52
2023-04-16T10:48:50.233Z,72.36
2023-04-16T10:51:25.423Z,72.22
2023-04-16T10:53:53.800Z,72.69
2023-04-16T10:56:27.232Z,72.68
2023-04-16T10:58:56.626Z,72.44
2023-04-16T11:01:34.137Z,72.42
2023-04-16T11:04:25.465Z,72.38
2023-04-16T11:07:12.863Z,72.26
2023-04-16T11:09:51.186Z,72.76
2023-04-16T11:12:21.423Z,73.29
2023-04-16T11:14:53.087Z,74.11
2023-04-16T11:17:20.627Z,74.92
2023-04-16T11:19:47.393Z,74.71
2023-04-16T11:22:16.074Z,74.81
2023-04-16T11:24:43.697Z,75.37
2023-04-16T11:27:12.486Z,74.10
2023-04-16T11:29:38.901Z,75.05
2023-04-16T11:32:05.503Z,75.27
2023-04-16T11:34:32.304Z,75.46
2023-04-16T11:36:58.648Z,75.98
2023-04-16T11:39:24.939Z,75.95
2023-04-16T11:41:51.866Z,75.79
2023-04-16T11:44:18.205Z,75.25
2023-04-16T11:46:44.564Z,74.53
2023-04-16T11:49:11.146Z,74.48
2023-04-16T11:51:44.704Z,74.02
2023-04-16T11:54:21.718Z,73.04
2023-04-16T11:56:49.946Z,72.54
2023-04-16T11:59:23.510Z,70.42
2023-04-16T12:01:51.151Z,71.66
2023-04-16T12:04:20.195Z,71.21
2023-04-16T12:07:05.914Z,70.45
2023-04-16T12:09:33.001Z,70.16
2023-04-16T12:11:59.408Z,69.89
2023-04-16T12:14:25.701Z,70.45
2023-04-16T12:16:52.134Z,70.49
2023-04-16T12:19:18.658Z,70.39
2023-04-16T12:21:50.137Z,71.01
2023-04-16T12:24:18.631Z,72.53
2023-04-16T12:26:47.336Z,71.83
2023-04-16T12:29:24.506Z,73.21
2023-04-16T12:31:52.158Z,73.27
2023-04-16T12:34:19.811Z,73.57
2023-04-16T12:36:47.798Z,74.33
2023-04-16T12:39:15.573Z,75.20
2023-04-16T12:41:43.508Z,74.66
2023-04-16T12:44:16.798Z,74.57
2023-04-16T12:46:44.600Z,75.05
2023-04-16T12:49:11.605Z,75.71
2023-04-16T12:51:38.799Z,76.06
2023-04-16T12:54:06.626Z,76.07
2023-04-16T12:56:33.888Z,77.10
2023-04-16T12:59:00.176Z,77.04
2023-04-16T13:01:26.549Z,77.70
2023-04-16T13:03:53.029Z,75.92
2023-04-16T13:06:19.944Z,75.97
2023-04-16T13:08:46.510Z,75.67
2023-04-16T13:11:13.359Z,75.25
2023-04-16T13:13:39.853Z,73.12
2023-04-16T13:16:06.195Z,73.76
2023-04-16T13:18:32.992Z,72.47
2023-04-16T13:20:59.462Z,71.75
2023-04-16T13:23:25.883Z,70.29
2023-04-16T13:25:52.216Z,69.27
2023-04-16T13:28:18.575Z,68.33
2023-04-16T13:30:45.677Z,67.16
2023-04-16T13:33:12.109Z,63.05
2023-04-16T13:35:38.798Z,64.35
2023-04-16T13:38:05.472Z,64.80
2023-04-16T13:40:31.769Z,61.69
2023-04-16T13:42:58.057Z,60.75
2023-04-16T13:45:24.560Z,63.08
2023-04-16T13:47:50.989Z,62.96
2023-04-16T13:50:17.456Z,60.26
2023-04-16T13:52:43.760Z,61.09
2023-04-16T13:55:10.123Z,60.10
2023-04-16T13:57:36.677Z,61.76
2023-04-16T14:00:03.190Z,60.93
2023-04-16T14:02:29.642Z,58.97
2023-04-16T14:04:56.081Z,60.08
2023-04-16T14:07:22.367Z,59.29
2023-04-16T14:09:48.651Z,59.88
2023-04-16T14:12:15.101Z,59.15
2023-04-16T14:14:41.534Z,59.06
2023-04-16T14:17:07.793Z,58.25
2023-04-16T14:19:34.176Z,57.56
2023-04-16T14:22:00.461Z,56.97
2023-04-16T14:24:26.744Z,56.18
2023-04-16T14:26:53.160Z,55.88
2023-04-16T14:29:19.475Z,55.89
2023-04-16T14:31:45.918Z,55.46
2023-04-16T14:34:12.330Z,56.47
2023-04-16T14:36:38.769Z,56.47
2023-04-16T14:39:05.059Z,56.40
2023-04-16T14:41:31.452Z,57.32
2023-04-16T14:43:58.855Z,56.76
2023-04-16T14:46:25.339Z,56.27
2023-04-16T14:48:51.738Z,58.01
2023-04-16T14:51:18.155Z,57.87
2023-04-16T14:53:44.453Z,60.82
2023-04-16T14:56:11.113Z,61.83
2023-04-16T14:58:39.295Z,63.24
2023-04-16T15:01:05.942Z,63.67
2023-04-16T15:03:32.645Z,63.39
2023-04-16T15:05:59.401Z,64.25
2023-04-16T15:08:25.679Z,64.52
2023-04-16T15:10:51.965Z,64.30
2023-04-16T15:13:18.533Z,64.54
2023-04-16T15:15:45.150Z,64.54
2023-04-16T15:18:11.498Z,64.65
2023-04-16T15:20:37.892Z,64.15
2023-04-16T15:23:04.208Z,63.88
2023-04-16T15:25:30.528Z,64.63
2023-04-16T15:27:56.910Z,63.82
2023-04-16T15:30:23.197Z,64.57
2023-04-16T15:32:49.581Z,63.67
2023-04-16T15:35:15.996Z,64.20
2023-04-16T15:37:42.251Z,64.37
2023-04-16T15:40:08.643Z,64.03
2023-04-16T15:42:35.107Z,62.97
2023-04-16T15:45:01.712Z,62.68
2023-04-16T15:47:28.610Z,62.69
2023-04-16T15:49:54.898Z,63.23
2023-04-16T15:52:21.224Z,63.54
2023-04-16T15:54:47.618Z,64.19
2023-04-16T15:57:13.900Z,65.04
2023-04-16T15:59:40.208Z,66.36
2023-04-16T16:02:06.659Z,66.56
2023-04-16T16:04:33.122Z,67.38
2023-04-16T16:06:59.553Z,68.97
2023-04-16T16:09:26.058Z,69.45
2023-04-16T16:11:53.115Z,69.63
2023-04-16T16:14:19.925Z,69.90
2023-04-16T16:16:46.412Z,70.48
2023-04-16T16:19:12.706Z,70.57
2023-04-16T16:21:38.979Z,70.71
2023-04-16T16:24:05.532Z,70.90
2023-04-16T16:26:31.822Z,72.05
2023-04-16T16:28:58.135Z,72.25
2023-04-16T16:31:24.556Z,71.84
2023-04-16T16:33:51.020Z,71.45
2023-04-16T16:36:17.345Z,71.85
2023-04-16T16:38:43.724Z,71.90
2023-04-16T16:41:10.113Z,71.71
2023-04-16T16:43:36.390Z,71.78
2023-04-16T16:46:02.879Z,71.66
2023-04-16T16:48:29.331Z,71.31
2023-04-16T16:50:55.746Z,71.00
2023-04-16T16:53:22.110Z,71.04
2023-04-16T16:55:48.395Z,71.37
2023-04-16T16:58:14.667Z,71.68
2023-04-16T17:00:41.030Z,71.80
2023-04-16T17:03:07.410Z,71.36
2023-04-16T17:05:34.979Z,71.01
2023-04-16T17:08:01.467Z,71.27
2023-04-16T17:10:27.762Z,70.60
2023-04-16T17:12:54.244Z,70.49
2023-04-16T17:15:21.887Z,71.65
2023-04-16T17:17:48.552Z,72.03
2023-04-16T17:20:15.065Z,72.61
2023-04-16T17:22:41.894Z,73.28
2023-04-16T17:25:08.849Z,74.29
2023-04-16T17:27:35.236Z,74.56
2023-04-16T17:30:02.976Z,75.60
2023-04-16T17:32:29.552Z,75.14
2023-04-16T17:34:56.321Z,75.89
2023-04-16T17:37:23.370Z,76.66
2023-04-16T17:39:50.072Z,76.40
2023-04-16T17:42:16.591Z,77.07
2023-04-16T17:44:45.371Z,77.44
2023-04-16T17:47:11.760Z,77.86
2023-04-16T17:49:38.066Z,77.13
2023-04-16T17:52:04.436Z,77.27
2023-04-16T17:54:30.720Z,78.17
2023-04-16T17:56:57.100Z,78.64
2023-04-16T17:59:23.433Z,78.06
2023-04-16T18:01:49.808Z,79.10
2023-04-16T18:04:16.650Z,78.62
2023-04-16T18:06:43.367Z,78.88
2023-04-16T18:09:09.742Z,79.02
2023-04-16T18:11:36.100Z,79.60
2023-04-16T18:14:02.375Z,80.11
2023-04-16T18:16:28.836Z,79.54
2023-04-16T18:18:55.236Z,79.54
2023-04-16T18:21:21.522Z,79.51
2023-04-16T18:23:47.910Z,80.47
2023-04-16T18:26:17.828Z,81.21
2023-04-16T18:28:46.651Z,80.88
2023-04-16T18:31:13.012Z,81.64
2023-04-16T18:33:55.477Z,81.28
2023-04-16T18:36:23.653Z,81.98
2023-04-16T18:38:59.989Z,80.78
2023-04-16T18:41:27.178Z,81.18
2023-04-16T18:43:53.565Z,82.31
2023-04-16T18:46:19.885Z,83.04
2023-04-16T18:48:46.357Z,83.04
2023-04-16T18:51:14.191Z,81.63
2023-04-16T18:53:41.877Z,82.92
2023-04-16T18:56:08.433Z,83.08
2023-04-16T18:58:34.752Z,83.71
2023-04-16T19:01:01.212Z,83.76
2023-04-16T19:03:28.612Z,84.10
2023-04-16T19:05:55.297Z,83.76
2023-04-16T19:08:21.594Z,83.98
2023-04-16T19:10:48.850Z,84.15
2023-04-16T19:13:15.702Z,83.78
2023-04-16T19:15:42.113Z,83.08
2023-04-16T19:18:08.439Z,83.88
2023-04-16T19:20:35.842Z,84.04
2023-04-16T19:23:02.639Z,83.54
2023-04-16T19:25:29.126Z,84.78
2023-04-16T19:27:55.463Z,84.26
2023-04-16T19:30:21.934Z,84.21
2023-04-16T19:32:48.441Z,84.30
2023-04-16T19:35:14.816Z,84.45
2023-04-16T19:37:41.162Z,84.01
2023-04-16T19:40:08.132Z,84.56
2023-04-16T19:42:34.426Z,83.96
2023-04-16T19:45:00.763Z,84.55
2023-04-16T19:47:27.395Z,85.36
2023-04-16T19:49:53.707Z,84.71
2023-04-16T19:52:20.064Z,84.94
2023-04-16T19:54:46.480Z,85.47
2023-04-16T19:57:12.749Z,84.83
2023-04-16T19:59:39.143Z,84.86
2023-04-16T20:02:05.525Z,84.91
2023-04-16T20:04:31.863Z,85.32
2023-04-16T20:06:58.410Z,85.33
2023-04-16T20:09:24.769Z,84.91
2023-04-16T20:11:51.234Z,85.07
2023-04-16T20:14:17.615Z,84.19
2023-04-16T20:16:44.076Z,84.03
2023-04-16T20:19:10.634Z,84.81
2023-04-16T20:21:37.356Z,85.24
2023-04-16T20:24:03.707Z,85.47
2023-04-16T20:26:33.126Z,84.80
2023-04-16T20:29:02.758Z,85.18
2023-04-16T20:31:29.245Z,85.05
2023-04-16T20:33:55.661Z,85.03
2023-04-16T20:36:21.948Z,84.77
2023-04-16T20:38:48.234Z,85.00
2023-04-16T20:41:14.653Z,84.89
2023-04-16T20:43:41.114Z,84.75
2023-04-16T20:46:08.257Z,85.44
2023-04-16T20:48:35.011Z,85.46
2023-04-16T20:51:03.082Z,84.71
2023-04-16T20:53:30.949Z,85.59
2023-04-16T20:55:57.686Z,85.22
2023-04-16T20:58:24.028Z,85.59
2023-04-16T21:00:51.327Z,85.28
2023-04-16T21:03:18.863Z,85.15
2023-04-16T21:05:53.492Z,85.53
2023-04-16T21:08:20.679Z,86.10
2023-04-16T21:10:47.475Z,85.53
2023-04-16T21:13:14.208Z,85.80
2023-04-16T21:15:41.842Z,85.38
2023-04-16T21:18:09.114Z,85.29
2023-04-16T21:20:35.874Z,85.53
2023-04-16T21:23:03.748Z,84.88
2023-04-16T21:25:30.437Z,85.54
2023-04-16T21:27:57.149Z,85.18
2023-04-16T21:30:23.695Z,85.09
2023-04-16T21:32:50.193Z,86.21
2023-04-16T21:35:16.543Z,86.05
2023-04-16T21:37:42.825Z,86.26
2023-04-16T21:40:09.530Z,86.00
2023-04-16T21:42:36.047Z,86.27
2023-04-16T21:45:02.475Z,86.91
2023-04-16T21:47:28.885Z,86.31
2023-04-16T21:49:55.183Z,85.78
2023-04-16T21:52:21.636Z,86.08
2023-04-16T21:54:48.070Z,85.46
2023-04-16T21:57:14.337Z,86.56
2023-04-16T21:59:40.712Z,85.68
2023-04-16T22:02:07.113Z,86.50
2023-04-16T22:04:33.392Z,85.72
2023-04-16T22:06:59.776Z,86.80
2023-04-16T22:09:26.185Z,85.91
2023-04-16T22:11:52.478Z,85.87
2023-04-16T22:14:18.747Z,85.92
2023-04-16T22:16:45.160Z,85.75
2023-04-16T22:19:11.837Z,85.75
2023-04-16T22:21:38.452Z,86.33
2023-04-16T22:24:05.075Z,86.35
2023-04-16T22:26:31.329Z,85.79
2023-04-16T22:28:57.610Z,85.65
2023-04-16T22:31:23.886Z,86.12
2023-04-16T22:33:50.152Z,85.70
2023-04-16T22:36:16.547Z,85.88
2023-04-16T22:38:42.880Z,85.50
2023-04-16T22:41:09.274Z,86.01
2023-04-16T22:43:35.556Z,85.39
2023-04-16T22:46:03.119Z,85.95
2023-04-16T22:48:29.619Z,85.33
2023-04-16T22:50:55.903Z,85.25
2023-04-16T22:53:22.593Z,85.78
2023-04-16T22:55:48.971Z,85.97
2023-04-16T22:58:15.239Z,85.88
2023-04-16T23:00:41.614Z,85.09
2023-04-16T23:03:08.095Z,85.89
2023-04-16T23:05:34.454Z,85.49
2023-04-16T23:08:00.896Z,85.59
2023-04-16T23:10:27.616Z,85.27
2023-04-16T23:12:54.271Z,85.57
2023-04-16T23:15:20.664Z,85.36
2023-04-16T23:17:47.741Z,85.76
2023-04-16T23:20:14.136Z,85.72
2023-04-16T23:22:40.472Z,85.27
2023-04-16T23:25:07.864Z,86.01
2023-04-16T23:27:34.769Z,85.42
2023-04-16T23:30:01.221Z,85.29
2023-04-16T23:32:27.518Z,84.78
2023-04-16T23:34:53.935Z,84.72
2023-04-16T23:37:20.357Z,85.21
2023-04-16T23:39:46.731Z,84.63
2023-04-16T23:42:13.060Z,85.33
2023-04-16T23:44:39.492Z,86.00
2023-04-16T23:47:05.851Z,85.69
2023-04-16T23:49:32.205Z,85.37
2023-04-16T23:51:58.535Z,85.33
2023-04-16T23:54:24.927Z,86.10
2023-04-16T23:56:51.194Z,85.44
2023-04-16T23:59:17.487Z,85.68
